Time;durP1;ratioP1;P1;durP2;ratioP2;P2;SDS_P1;SDS_P2;PMS_P1;PMS_P2;Temp;Humidity;BMP_temperature;BMP_pressure;BME280_temperature;BME280_humidity;BME280_pressure;Samples;Min_cycle;Max_cycle;Signal;HPM_P1;HPM_P2
2023/04/12 00:01:15;;;;;;;8.23;1.25;;;7.20;99.90;;;;;;5044038;28;20041;-77
2023/04/12 00:03:40;;;;;;;11.43;3.33;;;7.00;99.90;;;;;;5042292;28;20084;-77
2023/04/12 00:06:06;;;;;;;14.07;1.98;;;7.10;99.90;;;;;;5025862;28;20045;-77
2023/04/12 00:08:34;;;;;;;12.27;2.20;;;7.00;99.90;;;;;;5042487;28;20045;-77
2023/04/12 00:11:01;;;;;;;7.55;1.58;;;7.00;99.90;;;;;;5041987;28;20080;-78
2023/04/12 00:13:28;;;;;;;5.63;1.63;;;8.30;99.90;;;;;;5042499;28;20053;-77
2023/04/12 00:15:54;;;;;;;8.00;1.48;;;8.20;99.90;;;;;;5041707;28;20406;-77
2023/04/12 00:18:23;;;;;;;16.67;2.85;;;7.80;99.90;;;;;;5042137;28;20076;-77
2023/04/12 00:20:51;;;;;;;10.15;2.08;;;7.10;99.90;;;;;;5042368;28;20396;-78
2023/04/12 00:23:17;;;;;;;8.50;1.50;;;7.00;99.90;;;;;;5026005;28;20439;-78
2023/04/12 00:25:43;;;;;;;6.90;1.60;;;7.80;99.90;;;;;;5042219;28;20131;-77
2023/04/12 00:28:09;;;;;;;9.15;1.95;;;7.10;99.90;;;;;;5043800;28;20373;-77
2023/04/12 00:30:35;;;;;;;13.35;2.35;;;7.10;99.90;;;;;;5046283;28;20052;-77
2023/04/12 00:33:00;;;;;;;14.40;2.47;;;7.10;99.90;;;;;;5045631;28;20488;-77
2023/04/12 00:35:26;;;;;;;7.72;1.77;;;7.50;99.90;;;;;;5046106;28;20488;-77
2023/04/12 00:37:52;;;;;;;15.32;1.92;;;7.40;99.90;;;;;;5045359;28;20037;-77
2023/04/12 00:40:18;;;;;;;8.90;1.40;;;7.20;99.90;;;;;;5045752;28;20132;-78
2023/04/12 00:42:43;;;;;;;11.73;2.00;;;7.20;99.90;;;;;;5045439;28;20057;-78
2023/04/12 00:45:10;;;;;;;7.72;1.45;;;7.70;99.90;;;;;;5028829;28;20215;-78
2023/04/12 00:47:37;;;;;;;9.35;2.53;;;7.20;99.90;;;;;;5045450;28;20098;-78
2023/04/12 00:50:08;;;;;;;6.00;1.55;;;7.30;99.90;;;;;;5045943;28;20417;-77
2023/04/12 00:52:34;;;;;;;8.15;1.75;;;6.50;99.90;;;;;;5045532;28;20053;-78
2023/04/12 00:55:04;;;;;;;12.60;2.08;;;8.60;99.90;;;;;;5029044;28;20048;-77
2023/04/12 00:57:35;;;;;;;11.52;1.67;;;7.30;99.90;;;;;;5045312;28;20052;-77
2023/04/12 01:00:07;;;;;;;7.15;1.58;;;7.60;99.90;;;;;;5028812;28;20087;-77
2023/04/12 01:02:33;;;;;;;8.75;1.60;;;7.40;99.90;;;;;;5045158;28;20041;-77
2023/04/12 01:05:00;;;;;;;9.13;1.58;;;7.60;99.90;;;;;;5045361;28;20080;-77
2023/04/12 01:07:46;;;;;;;3.80;1.80;;;7.40;99.90;;;;;;5044668;28;20049;-77
2023/04/12 01:10:40;;;;;;;9.48;2.47;;;7.40;99.90;;;;;;5045109;28;20099;-77
2023/04/12 01:13:18;;;;;;;10.13;2.10;;;7.40;99.90;;;;;;5045605;28;20322;-78
2023/04/12 01:15:53;;;;;;;7.25;1.58;;;7.40;99.90;;;;;;5028046;28;20037;-78
2023/04/12 01:18:24;;;;;;;12.00;2.20;;;7.40;99.90;;;;;;5044987;28;20198;-77
2023/04/12 01:21:00;;;;;;;9.02;2.10;;;7.40;99.90;;;;;;5044934;28;20041;-77
2023/04/12 01:24:03;;;;;;;6.38;1.55;;;7.40;99.90;;;;;;5028111;28;20128;-78
2023/04/12 01:26:47;;;;;;;10.10;2.05;;;7.40;99.90;;;;;;5045103;28;20059;-77
2023/04/12 01:29:20;;;;;;;12.90;1.73;;;7.40;99.90;;;;;;5044934;28;20055;-77
2023/04/12 01:31:53;;;;;;;7.95;1.67;;;7.50;99.90;;;;;;5044834;28;20053;-78
2023/04/12 01:34:22;;;;;;;6.75;1.98;;;7.50;99.90;;;;;;5045144;28;20374;-77
2023/04/12 01:36:49;;;;;;;6.55;1.80;;;7.50;99.90;;;;;;5044737;28;20049;-77
2023/04/12 01:39:15;;;;;;;9.23;1.70;;;7.50;99.90;;;;;;5011975;28;20044;-77
2023/04/12 01:41:44;;;;;;;16.80;1.92;;;7.60;99.90;;;;;;5027498;28;20048;-77
2023/04/12 01:44:13;;;;;;;15.95;1.88;;;7.60;99.90;;;;;;5011665;28;20052;-77
2023/04/12 01:46:39;;;;;;;11.52;1.92;;;7.60;99.90;;;;;;5026836;28;20045;-77
2023/04/12 01:49:05;;;;;;;8.95;1.55;;;7.60;99.90;;;;;;5044488;28;20056;-77
2023/04/12 01:51:56;;;;;;;9.60;2.63;;;7.70;99.90;;;;;;5028191;28;20538;-77
2023/04/12 01:54:26;;;;;;;6.07;1.40;;;7.70;99.90;;;;;;5043975;28;20084;-77
2023/04/12 01:57:01;;;;;;;9.48;1.70;;;7.70;99.90;;;;;;5045776;28;20400;-77
2023/04/12 01:59:54;;;;;;;8.10;1.40;;;7.70;99.90;;;;;;5043665;28;20048;-78
2023/04/12 02:02:20;;;;;;;6.32;1.88;;;7.70;99.90;;;;;;5076158;28;20139;-77
2023/04/12 02:04:46;;;;;;;13.52;2.58;;;7.80;99.90;;;;;;5027906;28;20191;-77
2023/04/12 02:07:14;;;;;;;7.53;2.25;;;7.80;99.90;;;;;;5027164;28;20048;-76
2023/04/12 02:09:40;;;;;;;7.57;1.80;;;7.80;99.90;;;;;;5027715;28;20105;-76
2023/04/12 02:12:06;;;;;;;13.25;2.35;;;8.20;99.90;;;;;;5027634;28;20045;-76
2023/04/12 02:14:32;;;;;;;11.95;1.98;;;7.90;99.90;;;;;;5044000;28;20033;-75
2023/04/12 02:16:58;;;;;;;5.07;1.45;;;8.20;99.90;;;;;;5043367;28;20052;-76
2023/04/12 02:19:24;;;;;;;7.60;1.65;;;8.00;99.90;;;;;;5043660;28;20401;-76
2023/04/12 02:21:50;;;;;;;13.45;1.85;;;9.20;99.90;;;;;;5043758;28;20037;-76
2023/04/12 02:24:16;;;;;;;8.00;2.00;;;8.20;99.90;;;;;;5043662;28;20486;-76
2023/04/12 02:26:41;;;;;;;8.52;1.90;;;7.10;99.90;;;;;;5027023;28;20182;-76
2023/04/12 02:29:09;;;;;;;10.70;1.55;;;8.20;99.90;;;;;;5043098;28;20076;-76
2023/04/12 02:31:35;;;;;;;10.25;1.92;;;8.20;99.90;;;;;;5026596;28;20055;-76
2023/04/12 02:34:01;;;;;;;10.13;1.70;;;8.30;99.90;;;;;;5043893;28;20045;-76
2023/04/12 02:36:28;;;;;;;13.10;2.20;;;8.30;99.90;;;;;;5042922;28;20480;-76
2023/04/12 02:38:54;;;;;;;13.60;2.55;;;8.30;99.90;;;;;;5027090;28;20135;-76
2023/04/12 02:41:21;;;;;;;6.22;1.38;;;8.30;99.90;;;;;;5026387;28;20053;-76
2023/04/12 02:43:47;;;;;;;5.65;1.50;;;8.30;99.90;;;;;;5026746;28;20102;-76
2023/04/12 02:46:23;;;;;;;9.95;1.88;;;8.40;99.90;;;;;;5026168;28;20131;-76
2023/04/12 02:48:50;;;;;;;6.80;1.73;;;8.40;99.90;;;;;;5026797;28;20400;-76
2023/04/12 02:51:15;;;;;;;9.82;1.83;;;8.70;99.90;;;;;;5042325;28;20082;-76
2023/04/12 02:53:41;;;;;;;4.70;1.55;;;8.30;99.90;;;;;;5026583;28;20123;-76
2023/04/12 02:56:08;;;;;;;8.68;1.58;;;8.30;99.90;;;;;;5043491;28;20448;-76
2023/04/12 02:58:35;;;;;;;9.05;1.50;;;8.30;99.90;;;;;;5043014;28;20373;-77
2023/04/12 03:01:00;;;;;;;10.43;1.35;;;8.30;99.90;;;;;;5042923;28;20048;-77
2023/04/12 03:03:30;;;;;;;5.93;1.30;;;8.30;99.90;;;;;;5042837;28;20049;-77
2023/04/12 03:05:57;;;;;;;11.43;1.75;;;8.30;99.90;;;;;;5042459;28;20133;-78
2023/04/12 03:08:23;;;;;;;3.42;1.17;;;8.30;99.90;;;;;;5042985;28;20053;-77
2023/04/12 03:10:49;;;;;;;9.02;1.58;;;8.30;99.90;;;;;;5042629;28;20044;-78
2023/04/12 03:13:14;;;;;;;3.80;1.02;;;8.30;99.90;;;;;;5044275;28;20128;-78
2023/04/12 03:15:42;;;;;;;5.60;2.42;;;8.80;99.90;;;;;;5042463;28;20045;-77
2023/04/12 03:18:08;;;;;;;5.63;1.10;;;8.30;99.90;;;;;;5042776;28;20057;-77
2023/04/12 03:20:34;;;;;;;3.25;1.50;;;9.40;99.90;;;;;;5042250;28;20127;-77
2023/04/12 03:23:00;;;;;;;5.10;0.90;;;8.30;99.90;;;;;;5025855;28;20140;-77
2023/04/12 03:25:26;;;;;;;9.30;1.20;;;8.40;99.90;;;;;;5042757;28;20080;-77
2023/04/12 03:27:52;;;;;;;2.95;1.05;;;8.80;99.90;;;;;;5042869;28;20084;-77
2023/04/12 03:30:17;;;;;;;5.47;1.17;;;8.30;99.90;;;;;;5025959;28;20140;-77
2023/04/12 03:32:43;;;;;;;6.78;1.10;;;8.70;99.90;;;;;;5025629;28;20048;-77
2023/04/12 03:35:09;;;;;;;10.18;1.52;;;9.10;99.90;;;;;;5042481;28;20041;-78
2023/04/12 03:37:35;;;;;;;5.32;1.30;;;7.70;99.90;;;;;;5025658;28;20037;-78
2023/04/12 03:40:01;;;;;;;6.78;1.83;;;8.40;99.90;;;;;;5025627;28;20071;-77
2023/04/12 03:42:27;;;;;;;4.78;0.85;;;8.40;99.90;;;;;;5041861;28;20059;-77
2023/04/12 03:44:53;;;;;;;8.77;1.33;;;8.40;99.90;;;;;;5042056;28;20496;-77
2023/04/12 03:47:19;;;;;;;6.60;0.98;;;8.40;99.90;;;;;;5026090;28;20649;-77
2023/04/12 03:49:48;;;;;;;4.22;0.95;;;8.40;99.90;;;;;;5042085;28;20099;-77
2023/04/12 03:52:14;;;;;;;8.23;2.40;;;8.50;99.90;;;;;;5042825;28;20441;-77
2023/04/12 03:54:40;;;;;;;3.40;1.20;;;8.40;99.90;;;;;;5041845;28;20044;-77
2023/04/12 03:57:06;;;;;;;8.43;1.10;;;8.70;99.90;;;;;;5042006;28;20045;-76
2023/04/12 03:59:32;;;;;;;10.55;1.80;;;8.30;99.90;;;;;;5025744;28;20048;-76
2023/04/12 04:01:59;;;;;;;5.63;1.23;;;8.40;99.90;;;;;;5043453;28;20134;-76
2023/04/12 04:04:26;;;;;;;8.93;1.77;;;8.70;99.90;;;;;;5046408;28;20178;-76
2023/04/12 04:06:52;;;;;;;13.68;1.20;;;8.20;99.90;;;;;;5045394;28;20102;-76
2023/04/12 04:09:18;;;;;;;8.45;1.35;;;8.30;99.90;;;;;;5062595;28;20128;-77
2023/04/12 04:11:45;;;;;;;4.03;0.65;;;8.30;99.90;;;;;;5046733;28;20613;-76
2023/04/12 04:14:11;;;;;;;5.30;1.13;;;8.30;99.90;;;;;;5045603;28;20052;-78
2023/04/12 04:16:37;;;;;;;8.70;1.60;;;8.30;99.90;;;;;;5045455;28;20053;-79
2023/04/12 04:19:03;;;;;;;7.55;1.30;;;8.30;99.90;;;;;;5045255;28;20053;-78
2023/04/12 04:21:29;;;;;;;4.40;1.35;;;8.30;99.90;;;;;;5045781;28;20550;-77
2023/04/12 04:23:57;;;;;;;5.07;0.98;;;8.30;99.90;;;;;;5046341;28;20056;-78
2023/04/12 04:26:31;;;;;;;5.07;1.13;;;8.30;99.90;;;;;;5046996;28;20033;-77
2023/04/12 04:29:00;;;;;;;7.32;1.27;;;8.20;99.90;;;;;;5028917;28;20053;-80
2023/04/12 04:31:33;;;;;;;4.88;1.05;;;8.20;99.90;;;;;;5028411;28;20488;-81
2023/04/12 04:34:05;;;;;;;7.18;1.20;;;8.20;99.90;;;;;;5029259;28;20045;-81
2023/04/12 04:36:37;;;;;;;6.25;1.35;;;8.30;99.90;;;;;;5045274;28;20055;-79
2023/04/12 04:39:03;;;;;;;4.65;1.63;;;8.30;99.90;;;;;;5045333;28;20045;-82
2023/04/12 04:41:33;;;;;;;7.55;1.73;;;8.20;99.90;;;;;;5028090;28;20095;-80
2023/04/12 04:44:03;;;;;;;11.10;2.08;;;8.10;99.90;;;;;;5028530;28;20083;-78
2023/04/12 04:46:29;;;;;;;8.25;1.63;;;8.20;99.90;;;;;;5028643;28;20037;-79
2023/04/12 04:48:55;;;;;;;8.23;1.98;;;9.30;99.90;;;;;;5027870;28;20506;-79
2023/04/12 04:51:21;;;;;;;4.32;1.42;;;8.10;99.90;;;;;;5046633;28;20108;-77
2023/04/12 04:53:47;;;;;;;4.25;1.10;;;8.10;99.90;;;;;;5044015;28;20517;-78
2023/04/12 04:56:13;;;;;;;7.32;2.22;;;8.10;99.90;;;;;;5011555;28;20542;-78
2023/04/12 04:58:39;;;;;;;6.35;2.47;;;8.60;99.90;;;;;;5043955;28;20084;-78
2023/04/12 05:01:05;;;;;;;5.45;1.80;;;8.10;99.90;;;;;;5044567;28;20037;-78
2023/04/12 05:03:32;;;;;;;4.35;2.00;;;8.00;99.90;;;;;;5027529;28;20045;-78
2023/04/12 05:06:02;;;;;;;5.45;1.63;;;8.00;99.90;;;;;;5045524;28;20079;-78
2023/04/12 05:08:28;;;;;;;7.18;1.75;;;8.00;99.90;;;;;;5044838;28;20063;-80
2023/04/12 05:10:55;;;;;;;6.78;1.95;;;8.00;99.90;;;;;;5046083;28;20056;-79
2023/04/12 05:13:23;;;;;;;5.68;2.38;;;9.10;99.90;;;;;;5044163;28;20492;-79
2023/04/12 05:15:49;;;;;;;9.90;2.75;;;8.00;99.90;;;;;;5044532;28;20103;-79
2023/04/12 05:18:16;;;;;;;10.95;4.53;;;8.40;99.90;;;;;;5044664;28;20492;-79
2023/04/12 05:20:42;;;;;;;6.43;2.10;;;7.90;99.90;;;;;;5044723;28;20396;-78
2023/04/12 05:23:08;;;;;;;7.20;2.10;;;8.40;99.90;;;;;;5011309;28;20041;-79
2023/04/12 05:25:34;;;;;;;5.88;2.10;;;8.30;99.90;;;;;;5044665;28;20041;-79
2023/04/12 05:28:00;;;;;;;5.53;1.92;;;8.00;99.90;;;;;;5028337;28;20044;-79
2023/04/12 05:30:26;;;;;;;9.45;2.22;;;7.90;99.90;;;;;;5044665;28;20053;-79
2023/04/12 05:32:51;;;;;;;6.15;2.10;;;7.80;99.90;;;;;;5044127;28;20045;-79
2023/04/12 05:35:17;;;;;;;7.90;2.25;;;7.90;99.90;;;;;;5060936;28;20049;-79
2023/04/12 05:37:43;;;;;;;4.18;1.70;;;7.80;99.90;;;;;;5028028;28;20083;-80
2023/04/12 05:40:09;;;;;;;9.98;2.20;;;7.80;99.90;;;;;;5027804;28;20523;-80
2023/04/12 05:42:38;;;;;;;11.00;2.60;;;7.80;99.90;;;;;;5044635;28;20416;-79
2023/04/12 05:45:05;;;;;;;5.97;2.25;;;7.60;99.90;;;;;;5027567;28;20053;-80
2023/04/12 05:47:31;;;;;;;10.50;2.08;;;7.80;99.90;;;;;;5027683;28;20048;-79
2023/04/12 05:49:56;;;;;;;5.60;2.25;;;7.80;99.90;;;;;;5027334;28;20049;-79
2023/04/12 05:52:22;;;;;;;6.60;2.00;;;7.80;99.90;;;;;;5028115;28;20045;-83
2023/04/12 05:54:48;;;;;;;9.20;2.10;;;7.80;99.90;;;;;;5027925;28;20397;-80
2023/04/12 05:57:14;;;;;;;12.25;2.40;;;7.80;99.90;;;;;;5027443;28;20044;-80
2023/04/12 05:59:40;;;;;;;7.32;2.03;;;7.80;99.90;;;;;;5044119;28;20040;-79
2023/04/12 06:02:06;;;;;;;8.98;1.90;;;7.70;99.90;;;;;;5027109;28;20166;-79
2023/04/12 06:04:32;;;;;;;11.18;2.58;;;8.90;99.90;;;;;;5044015;28;20044;-78
2023/04/12 06:06:58;;;;;;;7.43;1.70;;;7.80;99.90;;;;;;5044074;28;20067;-78
2023/04/12 06:09:23;;;;;;;11.82;1.77;;;7.80;99.90;;;;;;5043822;28;20085;-78
2023/04/12 06:11:51;;;;;;;11.57;1.58;;;7.80;99.90;;;;;;5043932;28;20045;-79
2023/04/12 06:14:16;;;;;;;8.80;1.80;;;8.40;99.90;;;;;;5027748;28;20079;-79
2023/04/12 06:16:42;;;;;;;6.85;1.92;;;7.80;99.90;;;;;;5043618;28;20041;-79
2023/04/12 06:19:07;;;;;;;9.52;1.70;;;7.80;99.90;;;;;;5026805;28;20133;-79
2023/04/12 06:21:33;;;;;;;8.23;1.63;;;7.80;99.90;;;;;;5043912;28;20048;-79
2023/04/12 06:23:59;;;;;;;6.88;2.45;;;8.20;99.90;;;;;;5043581;28;20471;-79
2023/04/12 06:26:24;;;;;;;8.38;3.05;;;9.10;99.90;;;;;;5026158;28;20045;-79
2023/04/12 06:28:50;;;;;;;8.55;2.03;;;7.90;99.90;;;;;;5026844;28;20068;-78
2023/04/12 06:31:16;;;;;;;7.50;2.13;;;7.80;99.90;;;;;;5026760;28;20041;-79
2023/04/12 06:33:42;;;;;;;4.70;1.63;;;7.80;99.90;;;;;;5043378;28;20132;-79
2023/04/12 06:36:08;;;;;;;5.75;1.95;;;8.00;99.90;;;;;;5026399;28;20041;-79
2023/04/12 06:38:34;;;;;;;6.03;2.28;;;7.80;99.90;;;;;;5043589;28;20066;-79
2023/04/12 06:41:00;;;;;;;7.63;2.53;;;7.80;99.90;;;;;;5026142;28;20044;-80
2023/04/12 06:43:26;;;;;;;6.07;2.15;;;8.40;99.90;;;;;;5043294;28;20057;-79
2023/04/12 06:45:51;;;;;;;7.50;2.00;;;9.10;99.90;;;;;;5042946;28;20190;-79
2023/04/12 06:48:17;;;;;;;9.45;2.40;;;8.70;99.90;;;;;;5043120;28;20633;-80
2023/04/12 06:50:46;;;;;;;8.10;2.13;;;7.80;99.90;;;;;;5026895;28;20052;-79
2023/04/12 06:53:14;;;;;;;8.60;1.95;;;7.80;99.90;;;;;;5042613;28;20051;-81
2023/04/12 06:55:40;;;;;;;9.93;2.22;;;7.80;99.90;;;;;;5026546;28;20049;-78
2023/04/12 06:58:06;;;;;;;7.40;1.85;;;7.80;99.90;;;;;;5043080;28;20044;-78
2023/04/12 07:00:31;;;;;;;8.45;2.30;;;6.80;99.90;;;;;;5043336;28;20554;-78
2023/04/12 07:02:57;;;;;;;12.10;2.25;;;8.80;99.90;;;;;;5026036;28;20040;-78
2023/04/12 07:05:23;;;;;;;6.63;2.08;;;7.80;99.90;;;;;;5026037;28;20053;-78
2023/04/12 07:07:48;;;;;;;4.80;1.50;;;7.80;99.90;;;;;;5043491;28;20048;-78
2023/04/12 07:10:14;;;;;;;3.15;1.35;;;7.90;99.90;;;;;;5026006;28;20080;-78
2023/04/12 07:12:41;;;;;;;6.00;1.40;;;8.10;99.90;;;;;;5042862;28;20080;-78
2023/04/12 07:15:07;;;;;;;6.13;1.63;;;7.90;99.90;;;;;;5075762;28;20499;-79
2023/04/12 07:17:33;;;;;;;5.25;1.42;;;7.90;99.90;;;;;;5026298;28;20095;-79
2023/04/12 07:19:59;;;;;;;6.47;1.48;;;7.90;99.90;;;;;;5042180;28;20049;-78
2023/04/12 07:22:24;;;;;;;9.55;3.58;;;7.90;99.90;;;;;;5042453;28;20052;-78
2023/04/12 07:24:53;;;;;;;8.70;1.77;;;7.80;99.90;;;;;;5043901;28;20115;-78
2023/04/12 07:27:18;;;;;;;10.68;1.58;;;7.80;99.90;;;;;;5042179;28;20049;-78
2023/04/12 07:29:44;;;;;;;5.75;1.40;;;8.00;99.90;;;;;;5025885;28;20045;-79
2023/04/12 07:32:10;;;;;;;5.38;1.63;;;7.90;99.90;;;;;;5025760;28;20041;-78
2023/04/12 07:34:38;;;;;;;5.75;2.05;;;7.90;99.90;;;;;;5043115;28;20400;-79
2023/04/12 07:37:04;;;;;;;7.38;2.40;;;7.90;99.90;;;;;;5025172;28;20245;-78
2023/04/12 07:39:30;;;;;;;3.95;1.50;;;7.90;99.90;;;;;;5042210;28;20056;-79
2023/04/12 07:41:56;;;;;;;5.32;2.00;;;8.50;99.90;;;;;;5042338;28;20128;-80
2023/04/12 07:44:22;;;;;;;5.13;1.40;;;8.10;99.90;;;;;;5042159;28;20088;-79
2023/04/12 07:46:48;;;;;;;4.80;2.47;;;8.50;99.90;;;;;;5025849;28;20461;-80
2023/04/12 07:49:13;;;;;;;3.13;1.38;;;8.30;99.90;;;;;;5025349;28;20041;-79
2023/04/12 07:51:40;;;;;;;5.82;1.60;;;8.90;99.90;;;;;;5009580;28;20092;-79
2023/04/12 07:54:06;;;;;;;3.53;1.17;;;7.90;99.90;;;;;;5041406;28;20053;-79
2023/04/12 07:56:35;;;;;;;5.80;1.35;;;7.90;99.90;;;;;;5042806;28;20051;-79
2023/04/12 07:59:01;;;;;;;3.90;0.90;;;7.90;99.90;;;;;;5025404;28;20158;-79
2023/04/12 08:01:27;;;;;;;8.18;1.63;;;7.90;99.90;;;;;;5041941;28;20123;-78
2023/04/12 08:03:53;;;;;;;5.18;1.45;;;8.10;99.90;;;;;;5026285;28;20063;-79
2023/04/12 08:06:18;;;;;;;2.60;1.52;;;8.30;99.90;;;;;;5025268;28;20048;-79
2023/04/12 08:08:44;;;;;;;1.50;1.00;;;9.00;99.90;;;;;;5042378;28;20099;-79
2023/04/12 08:11:10;;;;;;;3.47;1.35;;;8.00;99.90;;;;;;5042154;28;20051;-80
2023/04/12 08:13:36;;;;;;;3.00;1.23;;;8.00;99.90;;;;;;5026085;28;20053;-79
2023/04/12 08:16:02;;;;;;;5.38;1.52;;;8.00;99.90;;;;;;5025247;28;20056;-79
2023/04/12 08:18:28;;;;;;;4.85;1.25;;;8.10;99.90;;;;;;5025579;28;20048;-79
2023/04/12 08:20:55;;;;;;;6.28;1.88;;;8.40;99.90;;;;;;5075554;28;20395;-79
2023/04/12 08:23:22;;;;;;;4.95;1.13;;;8.20;99.90;;;;;;5025925;28;20123;-78
2023/04/12 08:25:48;;;;;;;4.50;1.45;;;8.30;99.90;;;;;;5009818;28;20141;-79
2023/04/12 08:28:13;;;;;;;4.10;1.10;;;9.10;99.90;;;;;;5041619;28;20073;-80
2023/04/12 08:30:39;;;;;;;4.93;1.50;;;8.70;99.90;;;;;;5025298;28;20041;-79
2023/04/12 08:33:05;;;;;;;4.60;1.27;;;8.40;99.90;;;;;;5024946;28;20045;-79
2023/04/12 08:35:31;;;;;;;2.58;1.27;;;8.40;99.90;;;;;;5041751;28;20486;-79
2023/04/12 08:37:57;;;;;;;4.50;2.05;;;8.40;99.90;;;;;;5041884;28;20042;-79
2023/04/12 08:40:23;;;;;;;2.13;1.17;;;8.40;99.90;;;;;;5025135;28;20055;-79
2023/04/12 08:42:51;;;;;;;4.18;1.25;;;8.60;99.90;;;;;;5025123;28;20060;-80
2023/04/12 08:45:17;;;;;;;2.53;1.02;;;8.70;99.90;;;;;;5041547;28;20056;-79
2023/04/12 08:47:43;;;;;;;3.45;0.77;;;8.50;99.90;;;;;;5041859;28;20041;-79
2023/04/12 08:50:12;;;;;;;2.00;1.27;;;8.90;99.90;;;;;;5044505;28;20052;-79
2023/04/12 08:52:39;;;;;;;2.80;1.10;;;8.50;99.90;;;;;;5045006;28;20048;-79
2023/04/12 08:55:05;;;;;;;2.65;1.45;;;9.00;99.90;;;;;;5045087;28;20075;-79
2023/04/12 08:57:33;;;;;;;3.47;1.10;;;8.50;99.90;;;;;;5028420;28;20136;-78
2023/04/12 09:00:00;;;;;;;6.07;1.45;;;8.50;99.90;;;;;;5045141;28;20049;-78
2023/04/12 09:02:26;;;;;;;3.45;1.27;;;8.90;99.90;;;;;;5028180;28;20041;-77
2023/04/12 09:04:52;;;;;;;1.63;1.20;;;8.60;99.90;;;;;;5062107;28;20040;-79
2023/04/12 09:07:22;;;;;;;5.00;1.35;;;8.60;99.90;;;;;;5011852;28;20037;-79
2023/04/12 09:09:49;;;;;;;1.58;1.27;;;8.60;99.90;;;;;;5044954;28;20048;-79
2023/04/12 09:12:15;;;;;;;3.15;1.60;;;8.80;99.90;;;;;;5028268;28;20044;-79
2023/04/12 09:14:44;;;;;;;5.03;1.80;;;8.60;99.90;;;;;;5028441;28;20045;-79
2023/04/12 09:17:24;;;;;;;2.92;1.63;;;8.70;99.90;;;;;;5028838;28;20048;-79
2023/04/12 09:19:50;;;;;;;4.55;1.77;;;8.70;99.90;;;;;;5028192;28;20493;-79
2023/04/12 09:22:16;;;;;;;7.68;1.80;;;9.40;99.90;;;;;;5027797;28;20117;-79
2023/04/12 09:24:52;;;;;;;4.53;1.80;;;8.90;99.90;;;;;;5045110;28;20079;-78
2023/04/12 09:27:21;;;;;;;7.97;1.70;;;8.90;99.90;;;;;;5044196;28;20049;-79
2023/04/12 09:29:50;;;;;;;3.50;1.60;;;9.70;99.90;;;;;;5028324;28;20088;-79
2023/04/12 09:32:26;;;;;;;2.92;2.03;;;8.90;99.90;;;;;;5028125;28;20051;-79
2023/04/12 09:34:56;;;;;;;3.25;2.00;;;9.20;99.90;;;;;;5028335;28;20037;-79
2023/04/12 09:37:23;;;;;;;1.80;1.63;;;9.00;99.90;;;;;;5044833;28;20106;-79
2023/04/12 09:40:08;;;;;;;4.93;2.17;;;9.10;99.90;;;;;;5044737;28;20037;-79
2023/04/12 09:42:35;;;;;;;3.55;1.75;;;9.20;99.90;;;;;;5028278;28;20113;-78
2023/04/12 09:45:19;;;;;;;3.20;2.08;;;9.20;99.90;;;;;;5011339;28;20072;-79
2023/04/12 09:47:45;;;;;;;3.28;1.92;;;9.30;99.90;;;;;;5044334;28;20132;-79
2023/04/12 09:50:22;;;;;;;1.98;1.73;;;9.40;99.90;;;;;;5011423;28;20377;-79
2023/04/12 09:52:48;;;;;;;5.05;2.05;;;9.60;99.90;;;;;;5027152;28;20079;-79
2023/04/12 09:55:15;;;;;;;3.45;2.25;;;9.80;99.90;;;;;;5027433;28;20037;-79
2023/04/12 09:57:42;;;;;;;4.90;2.45;;;10.00;99.90;;;;;;5044056;28;20052;-80
2023/04/12 10:00:17;;;;;;;6.32;2.45;;;10.30;99.90;;;;;;5027424;28;20080;-79
2023/04/12 10:02:51;;;;;;;2.13;1.88;;;10.50;99.90;;;;;;5044417;28;20041;-79
2023/04/12 10:05:18;;;;;;;4.55;1.90;;;10.60;99.90;;;;;;5043928;28;20084;-79
2023/04/12 10:07:45;;;;;;;5.40;1.80;;;10.60;99.90;;;;;;5044889;28;20049;-79
2023/04/12 10:10:16;;;;;;;3.03;1.98;;;10.60;99.90;;;;;;5044446;28;20174;-78
2023/04/12 10:12:44;;;;;;;2.03;1.67;;;10.70;99.90;;;;;;5044032;28;20048;-79
2023/04/12 10:15:17;;;;;;;4.50;2.22;;;10.70;99.90;;;;;;5026954;28;20045;-79
2023/04/12 10:17:52;;;;;;;4.43;2.30;;;10.80;99.90;;;;;;5043663;28;20045;-79
2023/04/12 10:20:20;;;;;;;3.33;2.20;;;10.80;99.90;;;;;;5043582;28;20079;-78
2023/04/12 10:22:51;;;;;;;4.10;2.00;;;10.90;99.90;;;;;;5027032;28;20049;-79
2023/04/12 10:25:22;;;;;;;3.28;2.00;;;11.20;99.90;;;;;;5044009;28;20166;-79
2023/04/12 10:27:48;;;;;;;5.25;2.10;;;11.10;99.90;;;;;;5026650;28;20041;-79
2023/04/12 10:30:24;;;;;;;5.57;2.20;;;11.20;99.90;;;;;;5027147;28;20045;-78
2023/04/12 10:33:05;;;;;;;2.38;1.77;;;11.30;99.90;;;;;;5043974;28;20397;-79
2023/04/12 10:35:51;;;;;;;3.47;1.95;;;11.50;99.90;;;;;;5026580;28;20045;-78
2023/04/12 10:38:17;;;;;;;5.82;2.08;;;11.60;99.90;;;;;;5043669;28;20059;-78
2023/04/12 10:41:17;;;;;;;4.10;2.78;;;11.70;99.90;;;;;;5042841;28;20045;-78
2023/04/12 10:43:44;;;;;;;9.43;2.88;;;11.90;99.90;;;;;;5042961;28;20098;-78
2023/04/12 10:46:46;;;;;;;7.70;2.85;;;12.10;99.90;;;;;;5026494;28;20053;-79
2023/04/12 10:49:14;;;;;;;5.07;1.50;;;12.40;99.90;;;;;;5008402;28;20057;-79
2023/04/12 10:52:01;;;;;;;7.00;2.13;;;12.50;99.90;;;;;;5023421;28;20548;-79
2023/04/12 10:54:30;;;;;;;5.93;1.35;;;12.40;99.90;;;;;;5055777;28;20053;-79
2023/04/12 10:56:56;;;;;;;9.38;2.65;;;12.40;99.90;;;;;;5042655;28;20098;-78
2023/04/12 10:59:22;;;;;;;5.65;1.70;;;12.40;99.90;;;;;;5026601;28;20048;-78
2023/04/12 11:02:07;;;;;;;5.72;1.35;;;12.50;99.90;;;;;;5042505;28;20064;-78
2023/04/12 11:04:34;;;;;;;7.25;1.52;;;12.50;99.90;;;;;;5027149;28;20400;-78
2023/04/12 11:07:10;;;;;;;5.57;1.33;;;12.50;99.90;;;;;;5042598;28;20091;-78
2023/04/12 11:09:35;;;;;;;9.07;1.50;;;12.60;99.90;;;;;;5026151;28;20516;-77
2023/04/12 11:12:04;;;;;;;6.07;2.28;;;12.70;99.90;;;;;;5025562;28;20085;-78
2023/04/12 11:14:50;;;;;;;13.40;2.00;;;12.90;99.90;;;;;;5025724;28;20101;-78
2023/04/12 11:17:16;;;;;;;9.73;1.85;;;13.20;99.90;;;;;;5026895;28;20502;-78
2023/04/12 11:19:44;;;;;;;6.43;1.50;;;13.40;99.90;;;;;;5042615;28;20063;-78
2023/04/12 11:22:14;;;;;;;7.55;1.42;;;13.30;99.90;;;;;;5042288;28;20151;-78
2023/04/12 11:24:48;;;;;;;13.93;2.33;;;13.20;99.90;;;;;;5009522;28;20087;-78
2023/04/12 11:27:15;;;;;;;14.07;3.33;;;13.10;99.90;;;;;;5042643;28;20111;-77
2023/04/12 11:29:45;;;;;;;6.68;1.20;;;13.00;99.90;;;;;;5042550;28;20045;-79
2023/04/12 11:32:15;;;;;;;5.43;1.58;;;12.90;99.90;;;;;;5026367;28;20061;-78
2023/04/12 11:34:43;;;;;;;11.55;1.95;;;12.90;99.90;;;;;;5026149;28;20080;-78
2023/04/12 11:37:10;;;;;;;10.15;2.65;;;12.90;99.90;;;;;;5009730;28;20037;-78
2023/04/12 11:39:41;;;;;;;5.97;1.40;;;12.80;99.90;;;;;;5041834;28;20056;-78
2023/04/12 11:42:15;;;;;;;10.95;1.88;;;12.80;99.90;;;;;;5042410;28;20053;-78
2023/04/12 11:44:43;;;;;;;8.73;1.38;;;12.60;99.90;;;;;;5025347;28;20055;-78
2023/04/12 11:47:16;;;;;;;15.30;1.73;;;12.50;99.90;;;;;;5042318;28;20124;-79
2023/04/12 11:49:44;;;;;;;6.35;2.03;;;12.50;99.90;;;;;;5042666;28;20369;-78
2023/04/12 11:52:09;;;;;;;10.30;1.45;;;12.30;99.90;;;;;;5025719;28;20041;-78
2023/04/12 11:54:35;;;;;;;12.98;1.77;;;12.30;99.90;;;;;;5025991;28;20037;-77
2023/04/12 11:57:00;;;;;;;11.10;1.58;;;12.20;99.90;;;;;;5025322;28;20445;-78
2023/04/12 11:59:33;;;;;;;16.85;2.22;;;12.20;99.90;;;;;;5026003;28;20045;-78
2023/04/12 12:02:00;;;;;;;;;;;12.30;99.90;;;;;;5025733;28;20041;-78
2023/04/12 12:04:28;;;;;;;11.55;1.65;;;12.40;99.90;;;;;;5058942;28;20019;-78
2023/04/12 12:06:56;;;;;;;13.05;2.90;;;12.50;99.90;;;;;;5042216;28;20128;-78
2023/04/12 12:09:22;;;;;;;6.55;1.63;;;12.70;99.90;;;;;;5041876;28;20092;-78
2023/04/12 12:11:48;;;;;;;8.07;1.70;;;13.00;99.90;;;;;;5026117;28;20049;-78
2023/04/12 12:14:21;;;;;;;13.02;2.33;;;13.10;99.90;;;;;;5041522;28;20515;-78
2023/04/12 12:16:58;;;;;;;13.75;2.28;;;13.30;99.90;;;;;;5041856;28;20041;-78
2023/04/12 12:19:37;;;;;;;12.98;2.10;;;13.30;99.90;;;;;;5042000;28;20052;-78
2023/04/12 12:22:11;;;;;;;12.23;2.00;;;13.30;99.90;;;;;;5041788;28;20053;-78
2023/04/12 12:24:57;;;;;;;19.88;2.60;;;13.20;99.90;;;;;;5027678;28;20037;-78
2023/04/12 12:27:34;;;;;;;12.52;1.83;;;13.00;99.90;;;;;;5045984;28;20404;-78
2023/04/12 12:30:01;;;;;;;15.23;2.33;;;13.00;99.90;;;;;;5013164;28;20071;-78
2023/04/12 12:32:32;;;;;;;16.63;2.17;;;12.90;99.90;;;;;;5029280;28;20098;-78
2023/04/12 12:34:58;;;;;;;13.80;2.25;;;12.90;99.90;;;;;;5028975;28;20048;-78
2023/04/12 12:37:26;;;;;;;14.75;1.92;;;13.00;99.90;;;;;;5045541;28;20052;-78
2023/04/12 12:40:12;;;;;;;16.73;2.50;;;13.00;99.90;;;;;;5028494;28;20048;-78
2023/04/12 12:42:46;;;;;;;11.95;1.83;;;13.00;99.90;;;;;;5045944;28;20057;-78
2023/04/12 12:45:12;;;;;;;12.55;2.72;;;13.10;99.90;;;;;;5045299;28;20365;-78
2023/04/12 12:47:54;;;;;;;11.70;1.92;;;13.00;99.90;;;;;;5045599;28;20128;-78
2023/04/12 12:50:25;;;;;;;15.45;1.98;;;13.00;99.90;;;;;;5045337;28;20044;-78
2023/04/12 12:52:52;;;;;;;14.65;2.20;;;13.10;99.90;;;;;;5062270;28;20059;-78
2023/04/12 12:55:19;;;;;;;9.50;1.88;;;13.10;99.90;;;;;;5045295;28;20099;-78
2023/04/12 12:57:46;;;;;;;15.07;2.20;;;13.30;99.90;;;;;;5028523;28;20045;-78
2023/04/12 13:00:14;;;;;;;13.05;2.58;;;13.50;99.90;;;;;;5045170;28;20091;-78